createdAt,value
2018-03-02T00:00:56.023Z,25.40
2018-03-02T00:03:24.496Z,23.80
2018-03-02T00:05:52.207Z,24.00
2018-03-02T00:08:19.875Z,23.63
2018-03-02T00:10:47.598Z,23.47
2018-03-02T00:13:15.264Z,23.57
2018-03-02T00:15:42.968Z,22.67
2018-03-02T00:18:10.655Z,29.87
2018-03-02T00:20:38.376Z,20.60
2018-03-02T00:23:06.083Z,18.97
2018-03-02T00:25:34.560Z,24.20
2018-03-02T00:28:02.991Z,23.57
2018-03-02T00:30:30.698Z,26.70
2018-03-02T00:32:59.142Z,25.00
2018-03-02T00:35:28.396Z,31.55
2018-03-02T00:37:56.084Z,16.97
2018-03-02T00:40:23.804Z,21.43
2018-03-02T00:42:52.238Z,14.50
2018-03-02T00:45:19.967Z,23.62
2018-03-02T00:47:47.637Z,19.67
2018-03-02T00:50:15.367Z,22.73
2018-03-02T00:52:43.867Z,37.77
2018-03-02T00:55:11.580Z,22.37
2018-03-02T00:57:39.295Z,25.77
2018-03-02T01:00:07.002Z,17.10
2018-03-02T01:02:34.671Z,26.33
2018-03-02T01:05:03.208Z,28.00
2018-03-02T01:07:30.878Z,23.07
2018-03-02T01:09:58.555Z,29.03
2018-03-02T01:12:26.319Z,19.63
2018-03-02T01:14:53.999Z,18.17
2018-03-02T01:17:22.534Z,24.63
2018-03-02T01:19:50.191Z,16.37
2018-03-02T01:22:17.919Z,17.62
2018-03-02T01:24:45.639Z,20.70
2018-03-02T01:27:13.367Z,10.82
2018-03-02T01:29:41.040Z,22.70
2018-03-02T01:32:08.767Z,20.40
2018-03-02T01:34:36.438Z,18.07
2018-03-02T01:37:04.151Z,22.90
2018-03-02T01:39:32.592Z,28.55
2018-03-02T01:42:00.303Z,21.87
2018-03-02T01:44:27.980Z,24.70
2018-03-02T01:46:55.711Z,15.05
2018-03-02T01:49:24.154Z,19.70
2018-03-02T01:51:51.876Z,22.17
2018-03-02T01:54:19.549Z,24.65
2018-03-02T01:56:47.271Z,25.40
2018-03-02T01:59:15.709Z,20.15
2018-03-02T02:01:44.191Z,17.27
2018-03-02T02:04:11.881Z,21.20
2018-03-02T02:06:40.359Z,21.12
2018-03-02T02:09:08.799Z,22.92
2018-03-02T02:11:36.509Z,22.95
2018-03-02T02:14:04.963Z,24.98
2018-03-02T02:16:32.674Z,24.77
2018-03-02T02:19:00.351Z,21.60
2018-03-02T02:21:28.059Z,23.62
2018-03-02T02:23:56.503Z,24.90
2018-03-02T02:26:24.215Z,22.40
2018-03-02T02:29:01.907Z,21.05
2018-03-02T02:31:29.623Z,17.37
2018-03-02T02:33:57.300Z,11.52
2018-03-02T02:36:25.021Z,22.73
2018-03-02T02:38:52.699Z,23.50
2018-03-02T02:41:20.408Z,23.60
2018-03-02T02:43:48.079Z,32.10
2018-03-02T02:46:15.799Z,26.00
2018-03-02T02:48:43.471Z,23.52
2018-03-02T02:51:11.963Z,24.08
2018-03-02T02:53:39.638Z,20.92
2018-03-02T02:56:07.359Z,26.90
2018-03-02T02:58:35.032Z,12.57
2018-03-02T03:01:03.574Z,21.93
2018-03-02T03:03:31.265Z,19.70
2018-03-02T03:05:59.751Z,26.00
2018-03-02T03:08:28.189Z,27.13
2018-03-02T03:10:55.899Z,27.52
2018-03-02T03:13:23.576Z,28.48
2018-03-02T03:15:51.300Z,23.20
2018-03-02T03:18:19.736Z,24.95
2018-03-02T03:20:47.454Z,19.73
2018-03-02T03:23:15.888Z,14.98
2018-03-02T03:25:43.602Z,24.45
2018-03-02T03:28:11.283Z,23.70
2018-03-02T03:30:39.059Z,6.45
2018-03-02T03:33:06.735Z,27.33
2018-03-02T03:35:34.406Z,29.77
2018-03-02T03:38:02.130Z,18.08
2018-03-02T03:40:29.810Z,25.52
2018-03-02T03:42:57.527Z,28.42
2018-03-02T03:45:25.211Z,17.85
2018-03-02T03:47:52.922Z,19.08
2018-03-02T03:50:21.354Z,21.67
2018-03-02T03:52:49.070Z,29.65
2018-03-02T03:55:17.511Z,26.77
2018-03-02T03:57:45.223Z,28.38
2018-03-02T04:00:12.911Z,20.77
2018-03-02T04:02:40.619Z,16.60
2018-03-02T04:05:09.054Z,34.97
2018-03-02T04:07:36.810Z,31.67
2018-03-02T04:10:04.488Z,18.48
2018-03-02T04:12:32.203Z,24.05
2018-03-02T04:14:59.874Z,25.65
2018-03-02T04:17:27.600Z,23.55
2018-03-02T04:19:56.034Z,18.95
2018-03-02T04:22:23.744Z,18.67
2018-03-02T04:24:52.182Z,24.80
2018-03-02T04:27:19.895Z,18.48
2018-03-02T04:29:47.590Z,21.70
2018-03-02T04:32:15.310Z,17.75
2018-03-02T04:34:42.979Z,18.10
2018-03-02T04:37:10.703Z,25.42
2018-03-02T04:39:38.375Z,25.48
2018-03-02T04:42:06.859Z,22.25
2018-03-02T04:44:35.297Z,25.27
2018-03-02T04:47:03.007Z,34.17
2018-03-02T04:49:30.674Z,28.80
2018-03-02T04:51:58.407Z,26.45
2018-03-02T04:54:26.882Z,24.20
2018-03-02T04:56:54.604Z,22.30
2018-03-02T04:59:22.276Z,24.48
2018-03-02T05:01:49.995Z,23.92
2018-03-02T05:04:17.666Z,28.30
2018-03-02T05:06:45.384Z,23.90
2018-03-02T05:09:13.823Z,25.00
2018-03-02T05:11:41.532Z,30.62
2018-03-02T05:14:09.974Z,24.92
2018-03-02T05:16:37.723Z,22.65
2018-03-02T05:19:06.154Z,27.40
2018-03-02T05:21:34.631Z,23.65
2018-03-02T05:24:02.357Z,27.42
2018-03-02T05:26:30.080Z,31.08
2018-03-02T05:28:57.757Z,22.75
2018-03-02T05:31:25.476Z,23.40
2018-03-02T05:33:53.909Z,22.02
2018-03-02T05:36:21.615Z,26.98
2018-03-02T05:38:49.270Z,19.37
2018-03-02T05:41:17.738Z,28.35
2018-03-02T05:43:46.171Z,24.42
2018-03-02T05:46:13.884Z,24.87
2018-03-02T05:48:42.318Z,26.23
2018-03-02T05:51:10.024Z,24.05
2018-03-02T05:53:38.461Z,28.00
2018-03-02T05:56:06.134Z,25.95
2018-03-02T05:58:33.846Z,29.98
2018-03-02T06:01:01.515Z,26.08
2018-03-02T06:03:29.226Z,26.90
2018-03-02T06:05:56.896Z,25.85
2018-03-02T06:08:25.371Z,29.98
2018-03-02T06:10:53.811Z,22.30
2018-03-02T06:13:21.518Z,19.70
2018-03-02T06:15:49.958Z,18.20
2018-03-02T06:18:17.678Z,8.82
2018-03-02T06:20:45.350Z,26.80
2018-03-02T06:23:13.066Z,18.48
2018-03-02T06:25:41.499Z,31.00
2018-03-02T06:28:09.207Z,23.23
2018-03-02T06:30:37.645Z,21.83
2018-03-02T06:33:05.352Z,24.92
2018-03-02T06:35:33.786Z,18.92
2018-03-02T06:38:01.498Z,19.30
2018-03-02T06:40:29.166Z,31.27
2018-03-02T06:42:56.887Z,27.10
2018-03-02T06:45:24.559Z,34.22
2018-03-02T06:47:53.040Z,22.00
2018-03-02T06:50:21.471Z,29.33
2018-03-02T06:52:49.979Z,24.87
2018-03-02T06:55:17.647Z,24.42
2018-03-02T06:57:46.115Z,16.67
2018-03-02T07:00:13.791Z,21.73
2018-03-02T07:02:42.355Z,24.25
2018-03-02T07:05:10.059Z,24.12
2018-03-02T07:07:37.771Z,26.08
2018-03-02T07:10:05.439Z,12.40
2018-03-02T07:12:33.145Z,26.77
2018-03-02T07:15:00.807Z,18.33
2018-03-02T07:17:28.510Z,11.88
2018-03-02T07:19:56.188Z,20.55
2018-03-02T07:22:24.671Z,25.27
2018-03-02T07:24:53.098Z,17.62
2018-03-02T07:27:20.828Z,9.02
2018-03-02T07:29:48.554Z,30.65
2018-03-02T07:32:16.302Z,16.55
2018-03-02T07:34:43.979Z,22.70
2018-03-02T07:37:11.700Z,26.62
2018-03-02T07:39:39.370Z,23.52
2018-03-02T07:42:07.075Z,22.08
2018-03-02T07:44:35.511Z,24.25
2018-03-02T07:47:03.224Z,23.48
2018-03-02T07:49:30.910Z,11.15
2018-03-02T07:51:58.617Z,15.65
2018-03-02T07:54:27.050Z,18.12
2018-03-02T07:56:54.772Z,24.40
2018-03-02T07:59:23.277Z,28.23
2018-03-02T08:01:51.015Z,31.80
2018-03-02T08:04:19.528Z,26.60
2018-03-02T08:06:47.255Z,31.25
2018-03-02T08:09:15.731Z,22.83
2018-03-02T08:11:44.172Z,23.23
2018-03-02T08:14:11.895Z,23.48
2018-03-02T08:16:39.559Z,26.77
2018-03-02T08:19:07.270Z,17.52
2018-03-02T08:21:35.715Z,21.85
2018-03-02T08:24:03.436Z,26.10
2018-03-02T08:26:31.099Z,27.58
2018-03-02T08:28:58.807Z,25.43
2018-03-02T08:31:26.470Z,31.10
2018-03-02T08:33:54.179Z,23.37
2018-03-02T08:36:22.670Z,30.63
2018-03-02T08:38:50.435Z,28.40
2018-03-02T08:41:18.130Z,27.80
2018-03-02T08:43:45.835Z,21.87
2018-03-02T08:46:14.281Z,33.83
2018-03-02T08:48:41.987Z,26.77
2018-03-02T08:51:09.652Z,22.67
2018-03-02T08:53:37.363Z,28.13
2018-03-02T08:56:05.033Z,20.65
2018-03-02T08:58:33.471Z,12.17
2018-03-02T09:01:01.216Z,26.20
2018-03-02T09:03:28.922Z,26.73
2018-03-02T09:05:56.627Z,27.00
2018-03-02T09:08:24.279Z,15.33
2018-03-02T09:10:51.986Z,24.53
2018-03-02T09:13:20.460Z,27.63
2018-03-02T09:15:48.392Z,29.00
2018-03-02T09:18:16.063Z,24.60
2018-03-02T09:20:43.788Z,28.60
2018-03-02T09:23:12.224Z,30.20
2018-03-02T09:25:39.968Z,26.40
2018-03-02T09:28:07.663Z,30.30
2018-03-02T09:30:35.387Z,33.50
2018-03-02T09:33:03.050Z,102.53
2018-03-02T09:35:30.760Z,33.83
2018-03-02T09:37:59.293Z,31.03
2018-03-02T09:40:27.032Z,25.67
2018-03-02T09:42:54.695Z,38.70
2018-03-02T09:45:22.403Z,14.23
2018-03-02T09:47:50.070Z,26.50
2018-03-02T09:50:17.816Z,31.50
2018-03-02T09:52:45.482Z,28.17
2018-03-02T09:55:13.143Z,32.63
2018-03-02T09:57:40.883Z,25.83
2018-03-02T10:00:08.556Z,29.27
2018-03-02T10:02:36.296Z,19.53
2018-03-02T10:05:04.002Z,28.00
2018-03-02T10:07:32.471Z,30.03
2018-03-02T10:10:00.135Z,24.53
2018-03-02T10:12:28.603Z,25.77
2018-03-02T10:14:56.284Z,29.07
2018-03-02T10:17:24.758Z,28.87
2018-03-02T10:19:53.218Z,30.90
2018-03-02T10:22:20.927Z,29.97
2018-03-02T10:24:48.582Z,30.10
2018-03-02T10:27:16.295Z,28.20
2018-03-02T10:29:43.963Z,21.10
2018-03-02T10:32:11.688Z,28.33
2018-03-02T10:34:39.355Z,32.27
2018-03-02T10:37:07.016Z,31.93
2018-03-02T10:39:34.723Z,28.23
2018-03-02T10:42:03.158Z,29.70
2018-03-02T10:44:30.880Z,35.70
2018-03-02T10:46:58.542Z,37.60
2018-03-02T10:49:26.243Z,24.90
2018-03-02T10:51:53.915Z,32.07
2018-03-02T10:54:21.623Z,27.67
2018-03-02T10:56:49.290Z,29.70
2018-03-02T10:59:16.999Z,26.83
2018-03-02T11:01:50.475Z,32.10
2018-03-02T11:04:18.187Z,28.90
2018-03-02T11:06:45.859Z,28.87
2018-03-02T11:09:13.586Z,27.97
2018-03-02T11:11:42.015Z,32.03
2018-03-02T11:14:09.790Z,23.03
2018-03-02T11:16:37.486Z,34.20
2018-03-02T11:19:06.028Z,28.50
2018-03-02T11:21:33.724Z,30.30
2018-03-02T11:24:02.191Z,31.10
2018-03-02T11:26:29.854Z,28.53
2018-03-02T11:28:58.380Z,35.40
2018-03-02T11:31:26.090Z,23.13
2018-03-02T11:33:53.818Z,25.50
2018-03-02T11:36:21.569Z,31.63
2018-03-02T11:38:49.311Z,32.93
2018-03-02T11:41:16.991Z,34.20
2018-03-02T11:43:44.696Z,32.30
2018-03-02T11:46:12.367Z,28.83
2018-03-02T11:48:40.839Z,35.47
2018-03-02T11:51:09.271Z,35.03
2018-03-02T11:53:37.011Z,32.90
2018-03-02T11:56:04.691Z,30.73
2018-03-02T11:58:32.398Z,27.73
2018-03-02T12:01:00.942Z,35.03
2018-03-02T12:03:28.859Z,30.30
2018-03-02T12:05:56.541Z,30.77
2018-03-02T12:08:24.263Z,28.07
2018-03-02T12:10:52.744Z,33.17
2018-03-02T12:13:21.190Z,29.07
2018-03-02T12:15:48.910Z,29.33
2018-03-02T12:18:16.579Z,35.10
2018-03-02T12:20:44.368Z,30.20
2018-03-02T12:23:12.027Z,32.67
2018-03-02T12:25:39.730Z,31.53
2018-03-02T12:28:08.157Z,35.13
2018-03-02T12:30:35.871Z,30.90
2018-03-02T12:33:03.535Z,36.10
2018-03-02T12:35:31.265Z,29.73
2018-03-02T12:37:59.138Z,32.80
2018-03-02T12:40:27.617Z,35.13
2018-03-02T12:42:56.047Z,31.80
2018-03-02T12:45:23.767Z,50.70
2018-03-02T12:47:52.197Z,38.53
2018-03-02T12:50:19.915Z,32.07
2018-03-02T12:52:47.569Z,38.20
2018-03-02T12:55:15.323Z,36.17
2018-03-02T12:57:43.743Z,31.70
2018-03-02T13:00:12.219Z,35.70
2018-03-02T13:02:39.878Z,35.50
2018-03-02T13:05:07.579Z,29.23
2018-03-02T13:07:35.362Z,31.67
2018-03-02T13:10:03.874Z,42.80
2018-03-02T13:12:31.538Z,36.57
2018-03-02T13:14:59.395Z,36.53
2018-03-02T13:17:27.060Z,33.60
2018-03-02T13:19:54.768Z,34.47
2018-03-02T13:22:35.126Z,34.97
2018-03-02T13:25:03.611Z,34.70
2018-03-02T13:27:43.859Z,32.63
2018-03-02T13:30:12.367Z,38.73
2018-03-02T13:32:40.027Z,31.00
2018-03-02T13:35:11.713Z,29.17
2018-03-02T13:37:39.378Z,32.40
2018-03-02T13:40:19.703Z,37.67
2018-03-02T13:42:47.456Z,35.47
2018-03-02T13:45:15.914Z,32.23
2018-03-02T13:50:56.260Z,37.00
2018-03-02T13:53:23.922Z,34.43
2018-03-02T13:55:51.640Z,33.17
2018-03-02T13:58:19.353Z,34.87
2018-03-02T14:00:47.070Z,32.10
2018-03-02T14:03:26.554Z,32.40
2018-03-02T14:05:55.030Z,32.07
2018-03-02T14:08:23.479Z,29.77
2018-03-02T14:10:51.184Z,32.70
2018-03-02T14:13:19.647Z,35.03
2018-03-02T14:15:48.128Z,35.13
2018-03-02T14:18:16.598Z,36.20
2018-03-02T14:20:44.307Z,34.93
2018-03-02T14:23:11.979Z,37.87
2018-03-02T14:25:39.748Z,32.20
2018-03-02T14:28:07.418Z,31.40
2018-03-02T14:30:35.138Z,32.20
2018-03-02T14:33:02.812Z,31.20
2018-03-02T14:35:30.519Z,32.80
2018-03-02T14:37:58.179Z,32.80
2018-03-02T14:40:25.896Z,34.30
2018-03-02T14:42:53.555Z,36.40
2018-03-02T14:45:21.263Z,30.63
2018-03-02T14:47:48.926Z,34.60
2018-03-02T14:50:17.416Z,33.43
2018-03-02T14:52:45.112Z,34.03
2018-03-02T14:55:12.791Z,34.30
2018-03-02T14:57:40.500Z,36.40
2018-03-02T15:00:08.186Z,32.73
2018-03-02T15:02:35.889Z,36.43
2018-03-02T15:05:03.621Z,38.20
2018-03-02T15:07:32.147Z,33.67
2018-03-02T15:10:00.602Z,33.07
2018-03-02T15:12:28.315Z,40.30
2018-03-02T15:14:55.975Z,37.50
2018-03-02T15:17:23.687Z,37.27
2018-03-02T15:19:51.390Z,34.17
2018-03-02T15:22:19.090Z,34.50
2018-03-02T15:24:46.759Z,35.57
2018-03-02T15:27:14.464Z,34.50
2018-03-02T15:29:42.135Z,34.10
2018-03-02T15:32:09.844Z,32.90
2018-03-02T15:34:37.502Z,36.00
2018-03-02T15:37:05.211Z,34.07
2018-03-02T15:39:32.880Z,35.33
2018-03-02T15:42:00.649Z,33.93
2018-03-02T15:44:28.312Z,35.67
2018-03-02T15:46:56.061Z,38.47
2018-03-02T15:49:23.741Z,40.10
2018-03-02T15:51:51.450Z,33.67
2018-03-02T15:54:19.188Z,36.37
2018-03-02T15:56:46.896Z,34.40
2018-03-02T15:59:14.557Z,31.27
2018-03-02T16:01:42.275Z,32.70
2018-03-02T16:04:09.943Z,31.17
2018-03-02T16:06:38.455Z,30.70
2018-03-02T16:09:06.122Z,29.70
2018-03-02T16:11:33.832Z,34.83
2018-03-02T16:14:01.552Z,38.73
2018-03-02T16:16:29.215Z,39.60
2018-03-02T16:18:57.683Z,33.20
2018-03-02T16:21:25.379Z,32.67
2018-03-02T16:23:53.087Z,32.67
2018-03-02T16:26:20.753Z,34.80
2018-03-02T16:28:48.458Z,35.03
2018-03-02T16:31:16.172Z,37.50
2018-03-02T16:33:43.906Z,75.83
2018-03-02T16:36:12.328Z,33.07
2018-03-02T16:38:40.084Z,29.90
2018-03-02T16:41:07.775Z,33.33
2018-03-02T16:43:35.486Z,31.40
2018-03-02T16:46:03.154Z,33.60
2018-03-02T16:48:30.860Z,35.90
2018-03-02T16:50:58.598Z,35.50
2018-03-02T16:53:26.339Z,36.17
2018-03-02T16:55:54.008Z,36.33
2018-03-02T16:58:21.715Z,42.27
2018-03-02T17:00:50.151Z,38.67
2018-03-02T17:03:17.857Z,37.83
2018-03-02T17:05:46.293Z,47.73
2018-03-02T17:08:14.046Z,34.93
2018-03-02T17:10:41.715Z,33.27
2018-03-02T17:13:09.377Z,34.10
2018-03-02T17:15:37.099Z,32.07
2018-03-02T17:18:04.771Z,36.30
2018-03-02T17:20:32.479Z,33.73
2018-03-02T17:23:00.143Z,40.57
2018-03-02T17:25:28.614Z,41.00
2018-03-02T17:27:56.281Z,35.27
2018-03-02T17:30:23.990Z,38.57
2018-03-02T17:32:51.661Z,46.87
2018-03-02T17:35:19.367Z,38.57
2018-03-02T17:37:47.801Z,38.70
2018-03-02T17:40:15.503Z,40.43
2018-03-02T17:42:43.944Z,41.00
2018-03-02T17:45:11.675Z,37.33
2018-03-02T17:47:39.335Z,33.10
2018-03-02T17:50:07.044Z,36.27
2018-03-02T17:52:34.710Z,35.63
2018-03-02T17:55:02.467Z,40.30
2018-03-02T17:57:30.154Z,36.37
2018-03-02T17:59:58.625Z,37.63
2018-03-02T18:02:27.054Z,33.73
2018-03-02T18:04:54.758Z,36.63
2018-03-02T18:07:23.177Z,38.30
2018-03-02T18:09:50.883Z,46.37
2018-03-02T18:12:18.589Z,36.60
2018-03-02T18:14:46.295Z,36.87
2018-03-02T18:17:14.005Z,37.90
2018-03-02T18:19:41.671Z,38.43
2018-03-02T18:22:09.383Z,38.43
2018-03-02T18:24:37.060Z,39.30
2018-03-02T18:27:04.799Z,39.60
2018-03-02T18:29:32.460Z,44.93
2018-03-02T18:32:00.668Z,46.00
2018-03-02T18:34:28.901Z,37.97
2018-03-02T18:36:57.041Z,35.97
2018-03-02T18:39:28.017Z,36.10
2018-03-02T18:41:56.461Z,40.80
2018-03-02T18:44:25.360Z,37.23
2018-03-02T18:46:55.216Z,40.23
2018-03-02T18:49:24.348Z,37.80
2018-03-02T18:51:53.710Z,35.87
2018-03-02T18:54:22.218Z,37.60
2018-03-02T18:56:50.927Z,39.33
2018-03-02T18:59:20.429Z,40.57
2018-03-02T19:01:49.112Z,40.07
2018-03-02T19:04:18.586Z,41.10
2018-03-02T19:06:47.128Z,38.53
2018-03-02T19:09:16.401Z,37.20
2018-03-02T19:11:44.191Z,38.00
2018-03-02T19:14:13.479Z,34.47
2018-03-02T19:16:42.032Z,39.80
2018-03-02T19:19:11.004Z,43.43
2018-03-02T19:21:38.713Z,38.23
2018-03-02T19:24:07.146Z,34.53
2018-03-02T19:26:34.906Z,40.83
2018-03-02T19:29:02.603Z,31.80
2018-03-02T19:31:30.315Z,41.33
2018-03-02T19:33:57.974Z,41.50
2018-03-02T19:36:25.634Z,35.57
2018-03-02T19:38:53.356Z,39.47
2018-03-02T19:41:21.789Z,42.90
2018-03-02T19:43:49.494Z,41.73
2018-03-02T19:46:17.932Z,40.43
2018-03-02T19:48:45.642Z,38.80
2018-03-02T19:51:14.076Z,46.03
2018-03-02T19:53:41.791Z,43.13
2018-03-02T19:56:09.471Z,45.47
2018-03-02T19:58:37.183Z,50.97
2018-03-02T20:01:05.619Z,46.90
2018-03-02T20:03:33.323Z,40.40
2018-03-02T20:06:02.228Z,43.77
2018-03-02T20:08:29.933Z,41.20
2018-03-02T20:10:57.661Z,39.50
2018-03-02T20:13:25.371Z,45.83
2018-03-02T20:15:53.040Z,56.00
2018-03-02T20:18:20.747Z,37.47
2018-03-02T20:20:48.462Z,44.10
2018-03-02T20:23:17.034Z,38.33
2018-03-02T20:25:44.708Z,38.93
2018-03-02T20:28:13.204Z,45.20
2018-03-02T20:30:41.679Z,45.07
2018-03-02T20:33:10.174Z,41.87
2018-03-02T20:35:37.859Z,43.90
2018-03-02T20:38:05.599Z,42.17
2018-03-02T20:40:33.283Z,45.30
2018-03-02T20:43:00.998Z,50.10
2018-03-02T20:45:29.483Z,43.90
2018-03-02T20:47:57.978Z,44.10
2018-03-02T20:50:25.699Z,43.37
2018-03-02T20:52:53.379Z,48.87
2018-03-02T20:55:21.864Z,44.70
2018-03-02T20:57:49.529Z,49.93
2018-03-02T21:00:17.298Z,45.37
2018-03-02T21:02:45.025Z,51.83
2018-03-02T21:05:12.772Z,44.57
2018-03-02T21:07:40.444Z,40.63
2018-03-02T21:10:08.186Z,45.00
2018-03-02T21:12:35.862Z,50.60
2018-03-02T21:15:04.401Z,52.13
2018-03-02T21:17:32.103Z,50.17
2018-03-02T21:19:59.811Z,46.80
2018-03-02T21:22:27.484Z,40.57
2018-03-02T21:24:55.196Z,38.77
2018-03-02T21:27:23.623Z,47.70
2018-03-02T21:29:51.335Z,48.17
2018-03-02T21:32:19.771Z,48.63
2018-03-02T21:34:47.484Z,50.03
2018-03-02T21:37:15.148Z,47.80
2018-03-02T21:39:42.871Z,46.50
2018-03-02T21:42:10.543Z,45.33
2018-03-02T21:44:39.018Z,46.97
2018-03-02T21:47:06.683Z,45.90
2018-03-02T21:49:35.110Z,48.60
2018-03-02T21:52:02.867Z,51.70
2018-03-02T21:54:30.527Z,51.50
2018-03-02T21:56:58.243Z,51.37
2018-03-02T21:59:26.671Z,55.07
2018-03-02T22:01:54.408Z,57.63
2018-03-02T22:04:22.124Z,62.43
2018-03-02T22:06:49.888Z,51.43
2018-03-02T22:09:17.566Z,59.10
2018-03-02T22:11:46.057Z,53.73
2018-03-02T22:14:13.754Z,57.00
2018-03-02T22:16:41.471Z,57.93
2018-03-02T22:19:09.903Z,59.63
2018-03-02T22:21:37.611Z,55.70
2018-03-02T22:24:06.050Z,51.97
2018-03-02T22:26:33.755Z,53.03
2018-03-02T22:29:01.427Z,55.43
2018-03-02T22:31:29.986Z,54.10
2018-03-02T22:33:58.419Z,60.07
2018-03-02T22:36:26.118Z,60.23
2018-03-02T22:38:54.548Z,56.30
2018-03-02T22:41:22.251Z,64.17
2018-03-02T22:43:50.679Z,66.30
2018-03-02T22:46:18.395Z,63.60
2018-03-02T22:48:46.824Z,71.73
2018-03-02T22:51:14.491Z,70.87
2018-03-02T22:53:42.205Z,58.13
2018-03-02T22:56:09.866Z,54.63
2018-03-02T22:58:37.568Z,58.97
2018-03-02T23:01:05.236Z,56.33
2018-03-02T23:03:32.952Z,63.57
2018-03-02T23:06:00.618Z,61.20
2018-03-02T23:08:28.330Z,64.93
2018-03-02T23:10:55.987Z,61.70
2018-03-02T23:13:23.691Z,60.17
2018-03-02T23:15:51.354Z,58.00
2018-03-02T23:18:19.086Z,66.37
2018-03-02T23:20:47.514Z,57.40
2018-03-02T23:23:15.216Z,62.33
2018-03-02T23:25:42.883Z,65.80
2018-03-02T23:28:11.351Z,59.60
2018-03-02T23:30:39.011Z,68.93
2018-03-02T23:33:06.717Z,65.27
2018-03-02T23:35:34.382Z,60.53
2018-03-02T23:38:02.099Z,66.47
2018-03-02T23:40:30.530Z,65.37
2018-03-02T23:42:58.239Z,73.63
2018-03-02T23:45:26.667Z,63.53
2018-03-02T23:47:54.428Z,65.50
2018-03-02T23:50:22.114Z,71.30
2018-03-02T23:52:49.836Z,68.80
2018-03-02T23:55:17.503Z,62.80
2018-03-02T23:57:45.167Z,60.23
